Herzlich willkommen!

Am freundlichen Bodensee-Flugplatz zwischen Schwarzwald, Rhein und Alpen.

Aktuelles

Es liegen keine aktuellen Meldungen vor. Wir freuen uns auf Ihren Besuch!

Persönliches

Live am Platz

Die Bilder unserer Webcams werden alle 5 Minuten aktualisiert.

Sonnenaufgang:

05:57 UTC / 07:57 Lokal

Sonnenuntergang:

16:17 UTC / 18:17 Lokal

METAR (26.10.2021 10:20 UTC):

EDNY 261020Z 12003KT 360V170 CAVOK 12/08 Q1025
VFR

TAF (26.10.2021 05:00 UTC):

TAF EDNY 260500Z 2606/2706 VRB02KT 9000 FEW002 SCT015 PROB40 TEMPO 2606/2608 2000 -RADZ BR SCT002 BKN003 TEMPO 2608/2611 SCT004 BKN007 BECMG 2618/2621 2000 BCFG TEMPO 2621/2706 0700 FG SCT001 BKN002

Alle Angaben unverbindlich und ohne Gewähr. Zeiten genähert.

Für den Verkehrslandeplatz Konstanz werden keine offiziellen Wetterinformationen ausgegeben. Daher werden zur Orientierung Daten des nahegelegenen Flughafens Friedrichshafen dargestellt.

Das Landeentgelt kann bei uns auch mit aerops bezahlt werden. Die App für's Handy ist kostenfrei erhältlich.